createdAt,value
2018-04-27T00:01:46.202Z,4.40
2018-04-27T00:04:14.098Z,3.87
2018-04-27T00:06:42.047Z,4.23
2018-04-27T00:09:09.959Z,4.70
2018-04-27T00:11:37.874Z,4.47
2018-04-27T00:14:05.792Z,4.17
2018-04-27T00:16:33.881Z,3.97
2018-04-27T00:19:01.798Z,5.00
2018-04-27T00:21:29.689Z,4.80
2018-04-27T00:23:57.641Z,4.10
2018-04-27T00:26:25.567Z,5.10
2018-04-27T00:28:53.510Z,3.50
2018-04-27T00:31:21.434Z,3.90
2018-04-27T00:33:49.349Z,4.10
2018-04-27T00:36:17.254Z,4.30
2018-04-27T00:38:45.172Z,3.70
2018-04-27T00:41:13.097Z,3.90
2018-04-27T00:43:41.020Z,4.57
2018-04-27T00:46:08.947Z,4.67
2018-04-27T00:48:36.863Z,4.67
2018-04-27T00:51:04.794Z,4.77
2018-04-27T00:53:32.717Z,4.90
2018-04-27T00:56:00.668Z,4.20
2018-04-27T00:58:28.593Z,4.90
2018-04-27T01:00:56.572Z,4.20
2018-04-27T01:03:24.476Z,4.70
2018-04-27T01:05:52.397Z,6.07
2018-04-27T01:08:20.322Z,4.90
2018-04-27T01:10:48.217Z,4.53
2018-04-27T01:13:16.110Z,5.70
2018-04-27T01:15:44.030Z,5.37
2018-04-27T01:18:12.130Z,6.30
2018-04-27T01:20:40.078Z,4.93
2018-04-27T01:23:07.983Z,5.00
2018-04-27T01:25:35.914Z,5.70
2018-04-27T01:28:03.819Z,6.07
2018-04-27T01:30:31.722Z,5.80
2018-04-27T01:32:59.632Z,4.63
2018-04-27T01:35:27.537Z,5.63
2018-04-27T01:37:55.458Z,6.50
2018-04-27T01:40:23.376Z,6.00
2018-04-27T01:42:51.282Z,6.80
2018-04-27T01:45:19.194Z,5.90
2018-04-27T01:47:47.110Z,6.10
2018-04-27T01:50:15.037Z,5.80
2018-04-27T01:52:42.944Z,5.80
2018-04-27T01:55:10.866Z,5.87
2018-04-27T01:57:38.959Z,6.83
2018-04-27T02:00:06.857Z,5.93
2018-04-27T02:02:34.793Z,6.80
2018-04-27T02:05:02.806Z,5.93
2018-04-27T02:07:30.741Z,6.30
2018-04-27T02:09:58.659Z,6.10
2018-04-27T02:12:26.585Z,7.07
2018-04-27T02:14:54.488Z,6.30
2018-04-27T02:17:22.410Z,6.13
2018-04-27T02:19:50.581Z,6.27
2018-04-27T02:22:18.493Z,7.10
2018-04-27T02:24:46.391Z,5.87
2018-04-27T02:27:14.314Z,6.00
2018-04-27T02:29:42.215Z,7.13
2018-04-27T02:32:10.130Z,7.37
2018-04-27T02:34:38.030Z,5.87
2018-04-27T02:37:05.938Z,6.10
2018-04-27T02:39:33.857Z,6.63
2018-04-27T02:42:01.781Z,7.17
2018-04-27T02:44:29.679Z,6.67
2018-04-27T02:46:57.597Z,6.13
2018-04-27T02:49:25.534Z,6.10
2018-04-27T02:51:53.455Z,6.03
2018-04-27T02:54:21.365Z,6.00
2018-04-27T02:56:49.265Z,6.00
2018-04-27T02:59:17.209Z,5.67
2018-04-27T03:01:45.110Z,5.80
2018-04-27T03:04:13.020Z,6.40
2018-04-27T03:06:40.950Z,6.07
2018-04-27T03:09:08.892Z,5.17
2018-04-27T03:11:36.794Z,5.47
2018-04-27T03:14:04.714Z,6.33
2018-04-27T03:16:32.634Z,6.37
2018-04-27T03:19:01.825Z,6.40
2018-04-27T03:21:29.997Z,5.83
2018-04-27T03:23:57.924Z,6.93
2018-04-27T03:26:25.850Z,6.20
2018-04-27T03:28:53.758Z,5.93
2018-04-27T03:31:21.671Z,5.63
2018-04-27T03:33:49.595Z,6.20
2018-04-27T03:36:17.485Z,6.00
2018-04-27T03:38:45.389Z,6.50
2018-04-27T03:41:13.308Z,6.40
2018-04-27T03:43:41.209Z,6.00
2018-04-27T03:46:09.117Z,5.30
2018-04-27T03:48:37.028Z,6.10
2018-04-27T03:51:04.939Z,5.80
2018-04-27T03:53:32.848Z,5.10
2018-04-27T03:56:00.762Z,5.27
2018-04-27T03:58:35.499Z,5.47
2018-04-27T04:01:09.757Z,5.40
2018-04-27T04:03:43.774Z,5.63
2018-04-27T04:06:11.697Z,6.07
2018-04-27T04:08:39.593Z,6.70
2018-04-27T04:11:07.521Z,5.13
2018-04-27T04:13:35.465Z,5.83
2018-04-27T04:16:03.365Z,5.60
2018-04-27T04:18:31.388Z,6.37
2018-04-27T04:20:59.305Z,6.50
2018-04-27T04:23:27.506Z,5.40
2018-04-27T04:25:55.425Z,7.30
2018-04-27T04:28:23.333Z,7.40
2018-04-27T04:30:51.266Z,6.70
2018-04-27T04:33:19.165Z,7.50
2018-04-27T04:35:47.090Z,8.40
2018-04-27T04:38:15.074Z,8.73
2018-04-27T04:40:42.937Z,6.90
2018-04-27T04:43:10.861Z,7.43
2018-04-27T04:45:38.778Z,7.10
2018-04-27T04:48:06.682Z,7.33
2018-04-27T04:50:34.586Z,7.17
2018-04-27T04:53:02.502Z,6.43
2018-04-27T04:55:30.442Z,7.30
2018-04-27T04:57:58.403Z,7.20
2018-04-27T05:00:26.332Z,7.03
2018-04-27T05:02:54.252Z,7.93
2018-04-27T05:05:22.153Z,9.03
2018-04-27T05:07:50.074Z,6.80
2018-04-27T05:10:18.005Z,8.13
2018-04-27T05:12:45.947Z,8.17
2018-04-27T05:15:13.850Z,8.60
2018-04-27T05:17:41.762Z,7.70
2018-04-27T05:20:09.609Z,7.87
2018-04-27T05:22:37.517Z,8.63
2018-04-27T05:25:05.615Z,8.07
2018-04-27T05:27:33.505Z,8.43
2018-04-27T05:30:01.441Z,8.93
2018-04-27T05:32:29.347Z,8.20
2018-04-27T05:34:57.290Z,8.30
2018-04-27T05:37:25.213Z,9.90
2018-04-27T05:39:53.130Z,9.40
2018-04-27T05:42:21.053Z,7.90
2018-04-27T05:44:48.976Z,9.03
2018-04-27T05:47:16.915Z,9.60
2018-04-27T05:49:44.829Z,9.17
2018-04-27T05:52:12.741Z,9.30
2018-04-27T05:54:40.879Z,8.60
2018-04-27T05:57:08.925Z,9.50
2018-04-27T05:59:36.833Z,8.90
2018-04-27T06:02:04.724Z,9.07
2018-04-27T06:04:32.664Z,10.20
2018-04-27T06:07:00.579Z,9.20
2018-04-27T06:09:28.482Z,8.87
2018-04-27T06:11:56.569Z,7.87
2018-04-27T06:14:24.488Z,9.63
2018-04-27T06:16:52.406Z,9.23
2018-04-27T06:19:20.320Z,9.50
2018-04-27T06:21:48.241Z,9.33
2018-04-27T06:24:16.206Z,8.90
2018-04-27T06:26:44.288Z,9.13
2018-04-27T06:29:12.190Z,9.53
2018-04-27T06:31:40.125Z,7.70
2018-04-27T06:34:08.011Z,8.53
2018-04-27T06:36:35.983Z,8.27
2018-04-27T06:39:03.882Z,9.53
2018-04-27T06:41:31.823Z,8.80
2018-04-27T06:43:59.733Z,9.70
2018-04-27T06:46:27.638Z,10.30
2018-04-27T06:48:55.558Z,9.13
2018-04-27T06:51:23.488Z,8.97
2018-04-27T06:53:51.397Z,9.50
2018-04-27T06:56:19.287Z,9.00
2018-04-27T06:58:47.205Z,8.67
2018-04-27T07:01:15.115Z,9.77
2018-04-27T07:03:43.030Z,8.80
2018-04-27T07:06:10.946Z,9.83
2018-04-27T07:08:38.841Z,8.10
2018-04-27T07:11:06.757Z,8.77
2018-04-27T07:13:34.683Z,7.40
2018-04-27T07:16:02.617Z,7.97
2018-04-27T07:18:30.525Z,9.07
2018-04-27T07:20:58.445Z,7.97
2018-04-27T07:23:26.357Z,8.43
2018-04-27T07:25:54.324Z,9.40
2018-04-27T07:28:22.512Z,8.40
2018-04-27T07:30:50.422Z,7.20
2018-04-27T07:33:18.345Z,7.97
2018-04-27T07:35:46.281Z,7.87
2018-04-27T07:38:14.205Z,8.47
2018-04-27T07:40:42.138Z,7.90
2018-04-27T07:43:10.056Z,7.53
2018-04-27T07:45:37.950Z,7.00
2018-04-27T07:48:05.880Z,7.17
2018-04-27T07:50:33.801Z,8.63
2018-04-27T07:53:01.719Z,7.30
2018-04-27T07:55:29.646Z,7.43
2018-04-27T07:57:57.726Z,7.30
2018-04-27T08:00:25.639Z,7.13
2018-04-27T08:02:53.562Z,7.73
2018-04-27T08:05:21.485Z,6.60
2018-04-27T08:07:49.398Z,5.80
2018-04-27T08:10:17.309Z,6.57
2018-04-27T08:12:45.291Z,8.83
2018-04-27T08:15:13.446Z,6.90
2018-04-27T08:17:41.345Z,6.50
2018-04-27T08:20:09.261Z,6.27
2018-04-27T08:22:37.181Z,6.77
2018-04-27T08:25:05.078Z,6.67
2018-04-27T08:27:32.973Z,6.07
2018-04-27T08:30:01.142Z,6.90
2018-04-27T08:32:29.050Z,6.00
2018-04-27T08:34:56.962Z,6.93
2018-04-27T08:37:25.681Z,6.00
2018-04-27T08:39:54.643Z,8.83
2018-04-27T08:42:22.537Z,6.90
2018-04-27T08:44:50.479Z,7.60
2018-04-27T08:47:18.386Z,8.00
2018-04-27T08:49:46.299Z,6.30
2018-04-27T08:52:14.196Z,5.33
2018-04-27T08:54:42.109Z,6.60
2018-04-27T08:57:10.054Z,7.50
2018-04-27T08:59:37.979Z,7.03
2018-04-27T09:02:06.088Z,6.27
2018-04-27T09:04:34.406Z,6.43
2018-04-27T09:07:02.313Z,7.30
2018-04-27T09:09:30.193Z,7.17
2018-04-27T09:11:58.109Z,7.67
2018-04-27T09:14:26.059Z,7.20
2018-04-27T09:16:54.027Z,5.90
2018-04-27T09:19:21.962Z,4.90
2018-04-27T09:21:49.890Z,7.37
2018-04-27T09:24:17.806Z,6.17
2018-04-27T09:26:45.746Z,5.00
2018-04-27T09:29:13.647Z,5.07
2018-04-27T09:31:41.706Z,3.67
2018-04-27T09:34:09.610Z,3.87
2018-04-27T09:36:37.530Z,4.60
2018-04-27T09:39:05.433Z,4.33
2018-04-27T09:41:33.341Z,3.30
2018-04-27T09:44:01.246Z,4.30
2018-04-27T09:46:29.189Z,3.20
2018-04-27T09:48:57.112Z,4.70
2018-04-27T09:51:25.039Z,3.20
2018-04-27T09:53:52.965Z,3.90
2018-04-27T09:56:20.881Z,3.00
2018-04-27T09:58:48.810Z,3.00
2018-04-27T10:01:16.720Z,3.13
2018-04-27T10:03:44.611Z,3.40
2018-04-27T10:06:12.510Z,3.20
2018-04-27T10:08:40.421Z,4.90
2018-04-27T10:11:08.385Z,5.47
2018-04-27T10:13:36.337Z,5.33
2018-04-27T10:16:04.241Z,5.80
2018-04-27T10:18:32.162Z,6.20
2018-04-27T10:21:00.090Z,5.93
2018-04-27T10:23:28.005Z,5.57
2018-04-27T10:25:55.933Z,6.30
2018-04-27T10:28:23.831Z,7.47
2018-04-27T10:30:51.745Z,6.70
2018-04-27T10:33:19.850Z,6.37
2018-04-27T10:35:47.785Z,5.97
2018-04-27T10:38:15.694Z,4.60
2018-04-27T10:40:43.611Z,5.43
2018-04-27T10:43:11.512Z,5.07
2018-04-27T10:45:39.417Z,5.30
2018-04-27T10:48:07.365Z,7.80
2018-04-27T10:50:35.280Z,5.30
2018-04-27T10:53:03.205Z,5.10
2018-04-27T10:55:31.101Z,5.87
2018-04-27T10:57:58.994Z,6.70
2018-04-27T11:00:26.969Z,5.40
2018-04-27T11:02:54.877Z,6.87
2018-04-27T11:05:22.814Z,5.73
2018-04-27T11:07:50.749Z,5.17
2018-04-27T11:10:18.761Z,5.90
2018-04-27T11:12:46.657Z,6.23
2018-04-27T11:15:14.566Z,5.13
2018-04-27T11:17:42.459Z,6.00
2018-04-27T11:20:10.372Z,7.00
2018-04-27T11:22:38.277Z,6.07
2018-04-27T11:25:06.201Z,4.70
2018-04-27T11:27:34.104Z,4.40
2018-04-27T11:30:02.042Z,6.00
2018-04-27T11:32:29.970Z,4.20
2018-04-27T11:34:58.095Z,5.00
2018-04-27T11:37:26.005Z,3.87
2018-04-27T11:39:53.898Z,4.57
2018-04-27T11:42:21.848Z,4.60
2018-04-27T11:44:49.831Z,5.13
2018-04-27T11:47:17.741Z,4.50
2018-04-27T11:49:45.646Z,4.47
2018-04-27T11:52:13.539Z,5.40
2018-04-27T11:54:41.466Z,3.77
2018-04-27T11:57:09.361Z,4.33
2018-04-27T11:59:37.286Z,4.77
2018-04-27T12:02:07.175Z,4.50
2018-04-27T12:04:35.084Z,4.23
2018-04-27T12:07:02.987Z,4.60
2018-04-27T12:09:30.973Z,4.80
2018-04-27T12:11:59.077Z,4.03
2018-04-27T12:14:26.992Z,5.20
2018-04-27T12:16:54.642Z,4.23
2018-04-27T12:19:20.829Z,5.07
2018-04-27T12:21:47.002Z,6.03
2018-04-27T12:24:13.192Z,5.17
2018-04-27T12:26:39.393Z,7.20
2018-04-27T12:29:05.563Z,4.93
2018-04-27T12:31:31.840Z,4.20
2018-04-27T12:33:58.005Z,4.23
2018-04-27T12:36:26.157Z,4.20
2018-04-27T12:38:54.108Z,4.63
2018-04-27T12:41:21.994Z,4.33
2018-04-27T12:43:49.890Z,5.37
2018-04-27T12:46:17.818Z,4.23
2018-04-27T12:48:45.721Z,3.80
2018-04-27T12:51:13.654Z,4.33
2018-04-27T12:53:41.574Z,4.80
2018-04-27T12:56:09.477Z,4.37
2018-04-27T12:58:37.462Z,3.90
2018-04-27T13:01:05.370Z,3.90
2018-04-27T13:03:33.280Z,4.03
2018-04-27T13:06:01.206Z,3.97
2018-04-27T13:08:29.102Z,4.07
2018-04-27T13:10:57.024Z,5.03
2018-04-27T13:13:24.999Z,4.40
2018-04-27T13:15:52.910Z,3.90
2018-04-27T13:18:21.086Z,4.37
2018-04-27T13:20:48.994Z,3.90
2018-04-27T13:23:16.918Z,5.47
2018-04-27T13:25:44.809Z,4.53
2018-04-27T13:28:12.693Z,4.60
2018-04-27T13:30:40.650Z,4.93
2018-04-27T13:33:08.570Z,4.57
2018-04-27T13:35:36.484Z,4.60
2018-04-27T13:38:04.617Z,4.83
2018-04-27T13:40:32.522Z,4.60
2018-04-27T13:43:00.482Z,4.40
2018-04-27T13:45:28.395Z,5.03
2018-04-27T13:47:56.293Z,4.60
2018-04-27T13:50:24.194Z,4.83
2018-04-27T13:52:52.106Z,4.87
2018-04-27T13:55:20.052Z,5.27
2018-04-27T13:57:47.969Z,5.07
2018-04-27T14:00:15.892Z,4.93
2018-04-27T14:02:43.834Z,5.10
2018-04-27T14:05:11.749Z,4.60
2018-04-27T14:07:39.646Z,4.80
2018-04-27T14:10:07.582Z,6.20
2018-04-27T14:12:35.490Z,5.07
2018-04-27T14:15:03.423Z,9.40
2018-04-27T14:17:31.374Z,5.17
2018-04-27T14:19:59.318Z,6.03
2018-04-27T14:22:27.253Z,8.37
2018-04-27T14:24:55.167Z,4.90
2018-04-27T14:27:23.070Z,5.20
2018-04-27T14:29:51.005Z,4.97
2018-04-27T14:32:18.929Z,5.60
2018-04-27T14:34:46.834Z,6.03
2018-04-27T14:37:14.765Z,5.30
2018-04-27T14:39:42.937Z,6.13
2018-04-27T14:42:10.854Z,4.47
2018-04-27T14:44:38.758Z,4.30
2018-04-27T14:47:06.705Z,5.00
2018-04-27T14:49:34.614Z,4.73
2018-04-27T14:52:02.511Z,5.30
2018-04-27T14:54:30.429Z,4.97
2018-04-27T14:56:58.337Z,4.70
2018-04-27T14:59:26.340Z,5.10
2018-04-27T15:01:54.288Z,4.30
2018-04-27T15:04:22.282Z,5.23
2018-04-27T15:06:50.195Z,5.70
2018-04-27T15:09:18.097Z,5.20
2018-04-27T15:11:45.993Z,5.67
2018-04-27T15:14:13.920Z,4.33
2018-04-27T15:16:41.882Z,4.43
2018-04-27T15:19:10.010Z,4.50
2018-04-27T15:21:37.898Z,3.73
2018-04-27T15:24:05.845Z,3.60
2018-04-27T15:26:34.586Z,3.77
2018-04-27T15:29:02.530Z,4.73
2018-04-27T15:31:30.460Z,4.00
2018-04-27T15:33:58.393Z,3.77
2018-04-27T15:36:26.529Z,3.90
2018-04-27T15:38:54.490Z,3.67
2018-04-27T15:41:22.602Z,4.03
2018-04-27T15:43:50.609Z,3.67
2018-04-27T15:46:18.572Z,3.23
2018-04-27T15:48:46.516Z,4.53
2018-04-27T15:51:14.429Z,3.77
2018-04-27T15:53:42.339Z,4.07
2018-04-27T15:56:10.287Z,3.80
2018-04-27T15:58:38.230Z,3.80
2018-04-27T16:01:06.145Z,3.97
2018-04-27T16:03:34.127Z,4.20
2018-04-27T16:06:02.054Z,4.00
2018-04-27T16:08:29.974Z,4.13
2018-04-27T16:10:57.878Z,3.70
2018-04-27T16:13:32.033Z,5.43
2018-04-27T16:15:59.957Z,3.70
2018-04-27T16:18:27.880Z,3.67
2018-04-27T16:20:55.790Z,4.27
2018-04-27T16:23:23.766Z,3.13
2018-04-27T16:25:51.735Z,2.97
2018-04-27T16:28:19.690Z,3.63
2018-04-27T16:30:47.602Z,3.20
2018-04-27T16:33:15.524Z,3.40
2018-04-27T16:35:43.541Z,3.20
2018-04-27T16:38:11.407Z,3.50
2018-04-27T16:40:39.301Z,3.53
2018-04-27T16:43:07.406Z,3.53
2018-04-27T16:45:35.357Z,4.67
2018-04-27T16:48:03.321Z,3.10
2018-04-27T16:50:31.214Z,3.67
2018-04-27T16:52:59.229Z,3.20
2018-04-27T16:55:27.145Z,3.00
2018-04-27T16:57:55.075Z,3.03
2018-04-27T17:00:23.181Z,2.73
2018-04-27T17:02:51.127Z,2.30
2018-04-27T17:05:19.021Z,2.10
2018-04-27T17:07:46.930Z,2.10
2018-04-27T17:10:14.825Z,2.50
2018-04-27T17:12:42.742Z,1.60
2018-04-27T17:15:10.658Z,2.17
2018-04-27T17:17:38.554Z,2.20
2018-04-27T17:20:06.529Z,2.00
2018-04-27T17:22:34.437Z,1.93
2018-04-27T17:25:02.411Z,1.83
2018-04-27T17:27:30.322Z,2.60
2018-04-27T17:29:58.248Z,1.60
2018-04-27T17:32:26.160Z,1.77
2018-04-27T17:34:54.071Z,1.80
2018-04-27T17:37:21.967Z,3.37
2018-04-27T17:39:49.898Z,2.97
2018-04-27T17:42:17.790Z,6.80
2018-04-27T17:44:45.925Z,7.40
2018-04-27T17:47:13.884Z,4.60
2018-04-27T17:49:41.876Z,3.87
2018-04-27T17:52:09.847Z,9.83
2018-04-27T17:54:37.914Z,8.17
2018-04-27T17:57:08.832Z,7.20
2018-04-27T17:59:36.890Z,6.87
2018-04-27T18:02:04.906Z,7.63
2018-04-27T18:04:32.895Z,4.77
2018-04-27T18:07:00.990Z,3.40
2018-04-27T18:09:28.951Z,2.83
2018-04-27T18:11:56.990Z,2.27
2018-04-27T18:14:24.880Z,3.00
2018-04-27T18:16:53.738Z,2.23
2018-04-27T18:19:21.783Z,2.43
2018-04-27T18:21:49.767Z,2.03
2018-04-27T18:24:17.727Z,2.87
2018-04-27T18:26:45.622Z,2.67
2018-04-27T18:29:13.532Z,2.80
2018-04-27T18:31:41.444Z,2.80
2018-04-27T18:34:09.353Z,2.63
2018-04-27T18:36:37.253Z,2.70
2018-04-27T18:39:05.153Z,2.53
2018-04-27T18:41:33.084Z,6.70
2018-04-27T18:44:08.574Z,5.30
2018-04-27T18:46:36.688Z,3.77
2018-04-27T18:49:04.621Z,2.20
2018-04-27T18:51:32.573Z,2.87
2018-04-27T18:54:00.747Z,2.77
2018-04-27T18:56:28.677Z,2.83
2018-04-27T18:58:56.612Z,2.90
2018-04-27T19:01:24.530Z,2.47
2018-04-27T19:03:53.415Z,2.20
2018-04-27T19:06:23.291Z,2.77
2018-04-27T19:08:51.230Z,2.60
2018-04-27T19:11:19.279Z,1.90
2018-04-27T19:13:47.198Z,2.13
2018-04-27T19:16:15.136Z,2.90
2018-04-27T19:18:43.053Z,3.90
2018-04-27T19:21:11.887Z,3.00
2018-04-27T19:23:39.799Z,3.40
2018-04-27T19:26:07.718Z,3.00
2018-04-27T19:28:35.962Z,2.90
2018-04-27T19:31:03.885Z,2.93
2018-04-27T19:33:31.820Z,2.23
2018-04-27T19:35:59.794Z,2.13
2018-04-27T19:38:27.755Z,2.43
2018-04-27T19:40:55.681Z,2.40
2018-04-27T19:43:23.618Z,2.83
2018-04-27T19:45:51.546Z,2.97
2018-04-27T19:48:19.799Z,3.70
2018-04-27T19:50:47.713Z,4.30
2018-04-27T19:53:15.614Z,4.67
2018-04-27T19:55:43.514Z,3.63
2018-04-27T19:58:11.435Z,4.70
2018-04-27T20:00:39.354Z,7.90
2018-04-27T20:03:07.279Z,13.30
2018-04-27T20:05:35.258Z,9.30
2018-04-27T20:08:03.170Z,5.30
2018-04-27T20:10:35.096Z,3.50
2018-04-27T20:13:02.982Z,3.27
2018-04-27T20:15:34.896Z,3.00
2018-04-27T20:18:02.735Z,3.40
2018-04-27T20:20:30.643Z,2.83
2018-04-27T20:23:00.363Z,3.07
2018-04-27T20:25:28.257Z,2.70
2018-04-27T20:27:56.175Z,2.90
2018-04-27T20:30:24.085Z,3.20
2018-04-27T20:32:52.002Z,2.70
2018-04-27T20:35:19.906Z,3.33
2018-04-27T20:37:48.581Z,3.47
2018-04-27T20:40:16.562Z,3.70
2018-04-27T20:42:44.465Z,3.90
2018-04-27T20:48:09.662Z,15.20
2018-04-27T20:50:37.721Z,13.53
2018-04-27T20:53:05.641Z,9.70
2018-04-27T20:55:33.564Z,5.23
2018-04-27T20:58:01.473Z,4.50
2018-04-27T21:00:29.382Z,4.10
2018-04-27T21:02:57.286Z,3.97
2018-04-27T21:05:25.197Z,4.20
2018-04-27T21:07:53.102Z,4.03
2018-04-27T21:10:21.005Z,3.13
2018-04-27T21:12:48.912Z,3.63
2018-04-27T21:15:16.825Z,4.03
2018-04-27T21:17:44.731Z,4.30
2018-04-27T21:20:14.705Z,4.10
2018-04-27T21:22:42.626Z,6.40
2018-04-27T21:25:10.537Z,4.10
2018-04-27T21:27:40.497Z,4.37
2018-04-27T21:30:08.442Z,6.20
2018-04-27T21:32:36.304Z,4.50
2018-04-27T21:35:04.209Z,4.80
2018-04-27T21:37:32.103Z,4.53
2018-04-27T21:40:00.022Z,4.77
2018-04-27T21:42:27.914Z,6.07
2018-04-27T21:44:55.846Z,4.37
2018-04-27T21:47:38.695Z,5.23
2018-04-27T21:50:06.611Z,5.00
2018-04-27T21:52:55.847Z,4.53
2018-04-27T21:55:23.769Z,4.63
2018-04-27T21:57:51.669Z,5.10
2018-04-27T22:00:20.402Z,9.10
2018-04-27T22:02:54.574Z,12.87
2018-04-27T22:05:37.439Z,9.20
2018-04-27T22:08:07.282Z,8.23
2018-04-27T22:10:35.177Z,6.00
2018-04-27T22:13:03.943Z,5.43
2018-04-27T22:15:31.834Z,5.13
2018-04-27T22:17:59.729Z,6.00
2018-04-27T22:20:27.643Z,5.83
2018-04-27T22:22:55.550Z,6.17
2018-04-27T22:25:24.386Z,6.37
2018-04-27T22:27:54.117Z,6.40
2018-04-27T22:30:23.837Z,5.60
2018-04-27T22:32:51.721Z,5.90
2018-04-27T22:35:23.676Z,6.30
2018-04-27T22:37:51.593Z,7.03
2018-04-27T22:40:22.529Z,6.60
2018-04-27T22:42:53.324Z,6.87
2018-04-27T22:45:21.260Z,7.10
2018-04-27T22:47:52.172Z,6.80
2018-04-27T22:50:21.068Z,6.73
2018-04-27T22:52:49.385Z,6.37
2018-04-27T22:55:18.085Z,6.50
2018-04-27T22:58:00.953Z,7.47
2018-04-27T23:00:28.834Z,7.00
2018-04-27T23:02:56.733Z,7.40
2018-04-27T23:05:27.529Z,7.03
2018-04-27T23:07:56.427Z,6.67
2018-04-27T23:10:24.326Z,8.00
2018-04-27T23:12:54.249Z,7.30
2018-04-27T23:15:22.417Z,8.00
2018-04-27T23:17:50.319Z,6.80
2018-04-27T23:20:20.040Z,7.00
2018-04-27T23:22:57.906Z,7.00
2018-04-27T23:25:26.670Z,7.00
2018-04-27T23:27:54.720Z,7.80
2018-04-27T23:30:31.657Z,8.60
2018-04-27T23:32:59.576Z,7.17
2018-04-27T23:35:27.477Z,8.00
2018-04-27T23:37:55.371Z,7.73
2018-04-27T23:40:23.284Z,7.67
2018-04-27T23:42:51.194Z,8.20
2018-04-27T23:45:19.099Z,8.40
2018-04-27T23:47:47.012Z,8.00
2018-04-27T23:50:15.897Z,8.33
2018-04-27T23:52:43.802Z,8.40
2018-04-27T23:55:11.929Z,8.67
2018-04-27T23:57:40.705Z,8.27
